sensor_id;sensor_type;location;lat;lon;timestamp;temperature;humidity
78733;DHT22;68056;52.530;5.454;2023-06-10T00:02:00;20.70;53.00
78733;DHT22;68056;52.530;5.454;2023-06-10T00:04:26;20.70;53.00
78733;DHT22;68056;52.530;5.454;2023-06-10T00:06:52;20.70;53.10
78733;DHT22;68056;52.530;5.454;2023-06-10T00:09:19;20.60;53.10
78733;DHT22;68056;52.530;5.454;2023-06-10T00:11:48;20.60;53.10
78733;DHT22;68056;52.530;5.454;2023-06-10T00:14:13;20.50;53.00
78733;DHT22;68056;52.530;5.454;2023-06-10T00:16:39;20.50;53.00
78733;DHT22;68056;52.530;5.454;2023-06-10T00:19:05;20.50;53.00
78733;DHT22;68056;52.530;5.454;2023-06-10T00:21:33;20.50;53.00
78733;DHT22;68056;52.530;5.454;2023-06-10T00:24:06;20.50;53.00
78733;DHT22;68056;52.530;5.454;2023-06-10T00:26:32;20.40;53.00
78733;DHT22;68056;52.530;5.454;2023-06-10T00:28:59;20.40;53.00
78733;DHT22;68056;52.530;5.454;2023-06-10T00:31:25;20.30;52.90
78733;DHT22;68056;52.530;5.454;2023-06-10T00:33:52;20.30;52.90
78733;DHT22;68056;52.530;5.454;2023-06-10T00:36:17;20.30;52.90
78733;DHT22;68056;52.530;5.454;2023-06-10T00:38:43;20.30;53.00
78733;DHT22;68056;52.530;5.454;2023-06-10T00:41:08;20.20;53.00
78733;DHT22;68056;52.530;5.454;2023-06-10T00:43:34;20.20;53.00
78733;DHT22;68056;52.530;5.454;2023-06-10T00:46:00;20.10;53.00
78733;DHT22;68056;52.530;5.454;2023-06-10T00:48:26;20.10;52.90
78733;DHT22;68056;52.530;5.454;2023-06-10T00:50:52;20.10;52.90
78733;DHT22;68056;52.530;5.454;2023-06-10T00:53:18;20.10;52.90
78733;DHT22;68056;52.530;5.454;2023-06-10T00:55:43;20.00;52.90
78733;DHT22;68056;52.530;5.454;2023-06-10T00:58:10;20.00;53.00
78733;DHT22;68056;52.530;5.454;2023-06-10T01:00:36;20.00;53.10
78733;DHT22;68056;52.530;5.454;2023-06-10T01:03:02;20.00;53.10
78733;DHT22;68056;52.530;5.454;2023-06-10T01:05:34;19.90;53.20
78733;DHT22;68056;52.530;5.454;2023-06-10T01:08:22;19.90;53.10
78733;DHT22;68056;52.530;5.454;2023-06-10T01:10:54;19.80;53.10
78733;DHT22;68056;52.530;5.454;2023-06-10T01:13:22;19.70;53.10
78733;DHT22;68056;52.530;5.454;2023-06-10T01:15:50;19.70;53.10
78733;DHT22;68056;52.530;5.454;2023-06-10T01:18:15;19.70;53.10
78733;DHT22;68056;52.530;5.454;2023-06-10T01:20:42;19.70;53.20
78733;DHT22;68056;52.530;5.454;2023-06-10T01:23:09;19.70;53.30
78733;DHT22;68056;52.530;5.454;2023-06-10T01:25:49;19.60;53.30
78733;DHT22;68056;52.530;5.454;2023-06-10T01:28:30;19.50;53.40
78733;DHT22;68056;52.530;5.454;2023-06-10T01:31:20;19.50;53.40
78733;DHT22;68056;52.530;5.454;2023-06-10T01:33:52;19.50;53.50
78733;DHT22;68056;52.530;5.454;2023-06-10T01:36:19;19.50;53.40
78733;DHT22;68056;52.530;5.454;2023-06-10T01:38:46;19.40;53.50
78733;DHT22;68056;52.530;5.454;2023-06-10T01:41:17;19.40;53.50
78733;DHT22;68056;52.530;5.454;2023-06-10T01:43:43;19.30;53.50
78733;DHT22;68056;52.530;5.454;2023-06-10T01:46:10;19.30;53.60
78733;DHT22;68056;52.530;5.454;2023-06-10T01:48:37;19.20;53.70
78733;DHT22;68056;52.530;5.454;2023-06-10T01:51:03;19.20;53.70
78733;DHT22;68056;52.530;5.454;2023-06-10T01:53:29;19.20;53.80
78733;DHT22;68056;52.530;5.454;2023-06-10T01:55:55;19.20;53.80
78733;DHT22;68056;52.530;5.454;2023-06-10T01:58:20;19.10;53.80
78733;DHT22;68056;52.530;5.454;2023-06-10T02:00:46;19.10;53.80
78733;DHT22;68056;52.530;5.454;2023-06-10T02:03:11;19.10;53.80
78733;DHT22;68056;52.530;5.454;2023-06-10T02:05:37;19.10;53.80
78733;DHT22;68056;52.530;5.454;2023-06-10T02:08:03;19.00;53.90
78733;DHT22;68056;52.530;5.454;2023-06-10T02:10:29;19.00;54.00
78733;DHT22;68056;52.530;5.454;2023-06-10T02:12:54;19.00;54.00
78733;DHT22;68056;52.530;5.454;2023-06-10T02:15:20;19.00;54.00
78733;DHT22;68056;52.530;5.454;2023-06-10T02:17:46;18.90;54.10
78733;DHT22;68056;52.530;5.454;2023-06-10T02:20:11;18.90;54.20
78733;DHT22;68056;52.530;5.454;2023-06-10T02:22:37;18.90;54.30
78733;DHT22;68056;52.530;5.454;2023-06-10T02:25:03;18.80;54.30
78733;DHT22;68056;52.530;5.454;2023-06-10T02:27:30;18.80;54.40
78733;DHT22;68056;52.530;5.454;2023-06-10T02:29:57;18.80;54.40
78733;DHT22;68056;52.530;5.454;2023-06-10T02:32:23;18.70;54.50
78733;DHT22;68056;52.530;5.454;2023-06-10T02:34:48;18.70;54.50
78733;DHT22;68056;52.530;5.454;2023-06-10T02:37:15;18.70;54.70
78733;DHT22;68056;52.530;5.454;2023-06-10T02:39:40;18.60;54.70
78733;DHT22;68056;52.530;5.454;2023-06-10T02:42:06;18.60;54.80
78733;DHT22;68056;52.530;5.454;2023-06-10T02:44:32;18.60;54.80
78733;DHT22;68056;52.530;5.454;2023-06-10T02:46:57;18.50;55.00
78733;DHT22;68056;52.530;5.454;2023-06-10T02:49:23;18.50;55.00
78733;DHT22;68056;52.530;5.454;2023-06-10T02:51:50;18.50;55.10
78733;DHT22;68056;52.530;5.454;2023-06-10T02:54:22;18.40;55.20
78733;DHT22;68056;52.530;5.454;2023-06-10T02:56:48;18.40;55.20
78733;DHT22;68056;52.530;5.454;2023-06-10T02:59:14;18.30;55.30
78733;DHT22;68056;52.530;5.454;2023-06-10T03:01:40;18.30;55.40
78733;DHT22;68056;52.530;5.454;2023-06-10T03:04:06;18.30;55.50
78733;DHT22;68056;52.530;5.454;2023-06-10T03:06:32;18.30;55.50
78733;DHT22;68056;52.530;5.454;2023-06-10T03:09:01;18.30;55.50
78733;DHT22;68056;52.530;5.454;2023-06-10T03:11:29;18.20;55.60
78733;DHT22;68056;52.530;5.454;2023-06-10T03:13:57;18.20;55.70
78733;DHT22;68056;52.530;5.454;2023-06-10T03:16:23;18.20;55.80
78733;DHT22;68056;52.530;5.454;2023-06-10T03:18:50;18.10;55.80
78733;DHT22;68056;52.530;5.454;2023-06-10T03:21:16;18.10;55.90
78733;DHT22;68056;52.530;5.454;2023-06-10T03:23:41;18.10;56.00
78733;DHT22;68056;52.530;5.454;2023-06-10T03:26:07;18.10;56.10
78733;DHT22;68056;52.530;5.454;2023-06-10T03:28:33;18.00;56.10
78733;DHT22;68056;52.530;5.454;2023-06-10T03:30:58;18.00;56.20
78733;DHT22;68056;52.530;5.454;2023-06-10T03:33:24;18.00;56.20
78733;DHT22;68056;52.530;5.454;2023-06-10T03:35:50;18.00;56.20
78733;DHT22;68056;52.530;5.454;2023-06-10T03:38:16;18.00;56.30
78733;DHT22;68056;52.530;5.454;2023-06-10T03:40:42;18.00;56.30
78733;DHT22;68056;52.530;5.454;2023-06-10T03:43:07;18.00;56.40
78733;DHT22;68056;52.530;5.454;2023-06-10T03:45:33;18.00;56.50
78733;DHT22;68056;52.530;5.454;2023-06-10T03:47:58;18.00;56.50
78733;DHT22;68056;52.530;5.454;2023-06-10T03:50:24;18.00;56.60
78733;DHT22;68056;52.530;5.454;2023-06-10T03:52:50;17.90;56.70
78733;DHT22;68056;52.530;5.454;2023-06-10T03:55:16;17.90;56.70
78733;DHT22;68056;52.530;5.454;2023-06-10T03:57:42;17.80;56.80
78733;DHT22;68056;52.530;5.454;2023-06-10T04:00:08;17.80;56.90
78733;DHT22;68056;52.530;5.454;2023-06-10T04:02:40;17.80;57.00
78733;DHT22;68056;52.530;5.454;2023-06-10T04:05:14;17.80;57.10
78733;DHT22;68056;52.530;5.454;2023-06-10T04:07:40;17.80;57.20
78733;DHT22;68056;52.530;5.454;2023-06-10T04:10:08;17.80;57.20
78733;DHT22;68056;52.530;5.454;2023-06-10T04:12:34;17.80;57.30
78733;DHT22;68056;52.530;5.454;2023-06-10T04:15:00;17.80;57.40
78733;DHT22;68056;52.530;5.454;2023-06-10T04:17:26;17.80;57.50
78733;DHT22;68056;52.530;5.454;2023-06-10T04:19:52;17.80;57.60
78733;DHT22;68056;52.530;5.454;2023-06-10T04:22:18;17.70;57.80
78733;DHT22;68056;52.530;5.454;2023-06-10T04:24:43;17.70;57.80
78733;DHT22;68056;52.530;5.454;2023-06-10T04:27:09;17.70;57.90
78733;DHT22;68056;52.530;5.454;2023-06-10T04:29:35;17.60;57.90
78733;DHT22;68056;52.530;5.454;2023-06-10T04:32:01;17.60;58.00
78733;DHT22;68056;52.530;5.454;2023-06-10T04:34:27;17.60;58.00
78733;DHT22;68056;52.530;5.454;2023-06-10T04:36:53;17.60;58.10
78733;DHT22;68056;52.530;5.454;2023-06-10T04:39:18;17.60;58.20
78733;DHT22;68056;52.530;5.454;2023-06-10T04:41:45;17.60;58.20
78733;DHT22;68056;52.530;5.454;2023-06-10T04:44:11;17.60;58.20
78733;DHT22;68056;52.530;5.454;2023-06-10T04:46:37;17.60;58.30
78733;DHT22;68056;52.530;5.454;2023-06-10T04:49:03;17.60;58.30
78733;DHT22;68056;52.530;5.454;2023-06-10T04:51:30;17.60;58.40
78733;DHT22;68056;52.530;5.454;2023-06-10T04:53:55;17.70;58.50
78733;DHT22;68056;52.530;5.454;2023-06-10T04:56:21;17.70;58.50
78733;DHT22;68056;52.530;5.454;2023-06-10T04:58:47;17.80;58.50
78733;DHT22;68056;52.530;5.454;2023-06-10T05:01:13;17.70;58.60
78733;DHT22;68056;52.530;5.454;2023-06-10T05:03:38;17.80;58.60
78733;DHT22;68056;52.530;5.454;2023-06-10T05:06:04;17.80;58.50
78733;DHT22;68056;52.530;5.454;2023-06-10T05:08:30;17.80;58.50
78733;DHT22;68056;52.530;5.454;2023-06-10T05:10:55;17.80;58.50
78733;DHT22;68056;52.530;5.454;2023-06-10T05:13:21;17.80;58.50
78733;DHT22;68056;52.530;5.454;2023-06-10T05:15:46;17.90;58.60
78733;DHT22;68056;52.530;5.454;2023-06-10T05:18:12;17.90;58.70
78733;DHT22;68056;52.530;5.454;2023-06-10T05:20:38;18.00;58.70
78733;DHT22;68056;52.530;5.454;2023-06-10T05:23:03;18.00;58.70
78733;DHT22;68056;52.530;5.454;2023-06-10T05:25:32;18.00;58.80
78733;DHT22;68056;52.530;5.454;2023-06-10T05:27:58;18.00;58.90
78733;DHT22;68056;52.530;5.454;2023-06-10T05:30:24;18.10;58.80
78733;DHT22;68056;52.530;5.454;2023-06-10T05:32:51;18.10;58.90
78733;DHT22;68056;52.530;5.454;2023-06-10T05:35:17;18.10;59.00
78733;DHT22;68056;52.530;5.454;2023-06-10T05:37:43;18.20;58.90
78733;DHT22;68056;52.530;5.454;2023-06-10T05:40:09;18.30;58.90
78733;DHT22;68056;52.530;5.454;2023-06-10T05:42:34;18.30;58.90
78733;DHT22;68056;52.530;5.454;2023-06-10T05:45:00;18.40;58.80
78733;DHT22;68056;52.530;5.454;2023-06-10T05:47:26;18.40;58.70
78733;DHT22;68056;52.530;5.454;2023-06-10T05:49:51;18.50;58.70
78733;DHT22;68056;52.530;5.454;2023-06-10T05:52:18;18.50;58.70
78733;DHT22;68056;52.530;5.454;2023-06-10T05:54:43;18.60;58.70
78733;DHT22;68056;52.530;5.454;2023-06-10T05:57:09;18.80;58.60
78733;DHT22;68056;52.530;5.454;2023-06-10T05:59:39;18.90;58.40
78733;DHT22;68056;52.530;5.454;2023-06-10T06:02:05;19.10;58.30
78733;DHT22;68056;52.530;5.454;2023-06-10T06:04:32;19.30;58.00
78733;DHT22;68056;52.530;5.454;2023-06-10T06:07:03;19.50;57.90
78733;DHT22;68056;52.530;5.454;2023-06-10T06:09:29;19.70;57.80
78733;DHT22;68056;52.530;5.454;2023-06-10T06:11:54;19.90;57.50
78733;DHT22;68056;52.530;5.454;2023-06-10T06:14:20;20.00;57.30
78733;DHT22;68056;52.530;5.454;2023-06-10T06:16:45;20.20;57.10
78733;DHT22;68056;52.530;5.454;2023-06-10T06:19:11;20.30;56.90
78733;DHT22;68056;52.530;5.454;2023-06-10T06:21:37;20.50;56.70
78733;DHT22;68056;52.530;5.454;2023-06-10T06:24:02;20.70;56.50
78733;DHT22;68056;52.530;5.454;2023-06-10T06:26:29;20.80;56.20
78733;DHT22;68056;52.530;5.454;2023-06-10T06:28:55;20.90;56.10
78733;DHT22;68056;52.530;5.454;2023-06-10T06:31:20;21.00;56.00
78733;DHT22;68056;52.530;5.454;2023-06-10T06:33:46;21.10;55.80
78733;DHT22;68056;52.530;5.454;2023-06-10T06:36:11;21.20;55.70
78733;DHT22;68056;52.530;5.454;2023-06-10T06:38:37;21.40;55.50
78733;DHT22;68056;52.530;5.454;2023-06-10T06:41:02;21.50;55.30
78733;DHT22;68056;52.530;5.454;2023-06-10T06:43:29;21.50;55.20
78733;DHT22;68056;52.530;5.454;2023-06-10T06:45:56;21.70;55.10
78733;DHT22;68056;52.530;5.454;2023-06-10T06:48:22;21.90;55.00
78733;DHT22;68056;52.530;5.454;2023-06-10T06:50:47;22.10;54.70
78733;DHT22;68056;52.530;5.454;2023-06-10T06:53:13;22.30;54.60
78733;DHT22;68056;52.530;5.454;2023-06-10T06:55:38;22.50;54.60
78733;DHT22;68056;52.530;5.454;2023-06-10T06:58:04;22.70;54.60
78733;DHT22;68056;52.530;5.454;2023-06-10T07:00:30;22.80;54.40
78733;DHT22;68056;52.530;5.454;2023-06-10T07:02:56;23.00;54.50
78733;DHT22;68056;52.530;5.454;2023-06-10T07:05:22;23.30;54.50
78733;DHT22;68056;52.530;5.454;2023-06-10T07:07:49;23.40;54.30
78733;DHT22;68056;52.530;5.454;2023-06-10T07:10:23;23.60;54.30
78733;DHT22;68056;52.530;5.454;2023-06-10T07:12:48;23.80;54.10
78733;DHT22;68056;52.530;5.454;2023-06-10T07:15:14;24.00;53.70
78733;DHT22;68056;52.530;5.454;2023-06-10T07:17:40;24.10;53.40
78733;DHT22;68056;52.530;5.454;2023-06-10T07:20:06;24.20;53.70
78733;DHT22;68056;52.530;5.454;2023-06-10T07:22:31;24.30;53.70
78733;DHT22;68056;52.530;5.454;2023-06-10T07:24:57;24.50;53.40
78733;DHT22;68056;52.530;5.454;2023-06-10T07:27:23;24.70;53.30
78733;DHT22;68056;52.530;5.454;2023-06-10T07:29:50;24.80;52.80
78733;DHT22;68056;52.530;5.454;2023-06-10T07:32:15;25.00;52.60
78733;DHT22;68056;52.530;5.454;2023-06-10T07:34:41;25.00;52.60
78733;DHT22;68056;52.530;5.454;2023-06-10T07:37:08;25.10;52.30
78733;DHT22;68056;52.530;5.454;2023-06-10T07:39:34;25.30;52.10
78733;DHT22;68056;52.530;5.454;2023-06-10T07:42:00;25.40;52.00
78733;DHT22;68056;52.530;5.454;2023-06-10T07:44:25;25.60;51.90
78733;DHT22;68056;52.530;5.454;2023-06-10T07:46:51;25.80;51.90
78733;DHT22;68056;52.530;5.454;2023-06-10T07:49:17;25.90;51.70
78733;DHT22;68056;52.530;5.454;2023-06-10T07:51:42;26.00;51.60
78733;DHT22;68056;52.530;5.454;2023-06-10T07:54:08;26.20;51.40
78733;DHT22;68056;52.530;5.454;2023-06-10T07:56:33;26.20;51.20
78733;DHT22;68056;52.530;5.454;2023-06-10T07:58:59;26.40;51.20
78733;DHT22;68056;52.530;5.454;2023-06-10T08:01:25;26.60;51.10
78733;DHT22;68056;52.530;5.454;2023-06-10T08:03:51;26.80;51.00
78733;DHT22;68056;52.530;5.454;2023-06-10T08:06:16;26.90;50.60
78733;DHT22;68056;52.530;5.454;2023-06-10T08:08:43;27.00;50.50
78733;DHT22;68056;52.530;5.454;2023-06-10T08:11:10;27.20;50.00
78733;DHT22;68056;52.530;5.454;2023-06-10T08:13:36;27.30;49.80
78733;DHT22;68056;52.530;5.454;2023-06-10T08:16:02;27.40;49.70
78733;DHT22;68056;52.530;5.454;2023-06-10T08:18:28;27.40;49.60
78733;DHT22;68056;52.530;5.454;2023-06-10T08:20:54;27.40;49.40
78733;DHT22;68056;52.530;5.454;2023-06-10T08:23:20;27.50;49.30
78733;DHT22;68056;52.530;5.454;2023-06-10T08:25:45;27.70;49.20
78733;DHT22;68056;52.530;5.454;2023-06-10T08:28:11;27.90;49.10
78733;DHT22;68056;52.530;5.454;2023-06-10T08:30:36;28.00;49.00
78733;DHT22;68056;52.530;5.454;2023-06-10T08:33:02;28.20;48.80
78733;DHT22;68056;52.530;5.454;2023-06-10T08:35:28;28.30;48.50
78733;DHT22;68056;52.530;5.454;2023-06-10T08:37:53;28.50;48.50
78733;DHT22;68056;52.530;5.454;2023-06-10T08:40:19;28.70;48.30
78733;DHT22;68056;52.530;5.454;2023-06-10T08:43:00;28.90;48.00
78733;DHT22;68056;52.530;5.454;2023-06-10T08:45:30;28.90;47.50
78733;DHT22;68056;52.530;5.454;2023-06-10T08:48:03;29.00;47.50
78733;DHT22;68056;52.530;5.454;2023-06-10T08:50:34;29.20;47.30
78733;DHT22;68056;52.530;5.454;2023-06-10T08:53:01;29.20;47.20
78733;DHT22;68056;52.530;5.454;2023-06-10T08:55:34;29.30;47.20
78733;DHT22;68056;52.530;5.454;2023-06-10T08:58:01;29.50;47.20
78733;DHT22;68056;52.530;5.454;2023-06-10T09:00:28;29.90;47.20
78733;DHT22;68056;52.530;5.454;2023-06-10T09:02:54;30.00;47.20
78733;DHT22;68056;52.530;5.454;2023-06-10T09:05:20;30.10;47.00
78733;DHT22;68056;52.530;5.454;2023-06-10T09:07:48;30.30;46.60
78733;DHT22;68056;52.530;5.454;2023-06-10T09:10:14;30.40;46.70
78733;DHT22;68056;52.530;5.454;2023-06-10T09:12:40;30.60;46.30
78733;DHT22;68056;52.530;5.454;2023-06-10T09:15:07;30.70;46.10
78733;DHT22;68056;52.530;5.454;2023-06-10T09:17:33;30.80;46.00
78733;DHT22;68056;52.530;5.454;2023-06-10T09:20:08;30.90;45.80
78733;DHT22;68056;52.530;5.454;2023-06-10T09:22:33;31.00;45.40
78733;DHT22;68056;52.530;5.454;2023-06-10T09:25:10;31.10;45.40
78733;DHT22;68056;52.530;5.454;2023-06-10T09:27:50;31.20;44.80
78733;DHT22;68056;52.530;5.454;2023-06-10T09:30:33;31.20;44.70
78733;DHT22;68056;52.530;5.454;2023-06-10T09:33:03;31.20;44.90
78733;DHT22;68056;52.530;5.454;2023-06-10T09:35:34;31.30;44.40
78733;DHT22;68056;52.530;5.454;2023-06-10T09:38:00;31.40;43.90
78733;DHT22;68056;52.530;5.454;2023-06-10T09:40:27;31.40;44.00
78733;DHT22;68056;52.530;5.454;2023-06-10T09:42:55;31.50;44.10
78733;DHT22;68056;52.530;5.454;2023-06-10T09:45:21;31.60;43.80
78733;DHT22;68056;52.530;5.454;2023-06-10T09:47:51;31.70;43.70
78733;DHT22;68056;52.530;5.454;2023-06-10T09:50:17;31.70;43.70
78733;DHT22;68056;52.530;5.454;2023-06-10T09:52:42;31.90;44.10
78733;DHT22;68056;52.530;5.454;2023-06-10T09:55:10;32.00;43.80
78733;DHT22;68056;52.530;5.454;2023-06-10T09:57:37;32.10;43.50
78733;DHT22;68056;52.530;5.454;2023-06-10T10:00:08;32.20;43.10
78733;DHT22;68056;52.530;5.454;2023-06-10T10:02:48;32.20;42.90
78733;DHT22;68056;52.530;5.454;2023-06-10T10:05:15;32.20;43.20
78733;DHT22;68056;52.530;5.454;2023-06-10T10:07:42;32.40;43.00
78733;DHT22;68056;52.530;5.454;2023-06-10T10:10:07;32.50;43.20
78733;DHT22;68056;52.530;5.454;2023-06-10T10:12:35;32.60;43.30
78733;DHT22;68056;52.530;5.454;2023-06-10T10:15:02;32.80;42.80
78733;DHT22;68056;52.530;5.454;2023-06-10T10:17:29;32.80;42.80
78733;DHT22;68056;52.530;5.454;2023-06-10T10:19:59;33.00;42.80
78733;DHT22;68056;52.530;5.454;2023-06-10T10:22:29;33.10;42.50
78733;DHT22;68056;52.530;5.454;2023-06-10T10:25:01;33.10;42.20
78733;DHT22;68056;52.530;5.454;2023-06-10T10:27:33;33.20;41.90
78733;DHT22;68056;52.530;5.454;2023-06-10T10:30:02;33.30;42.10
78733;DHT22;68056;52.530;5.454;2023-06-10T10:32:36;33.50;42.10
78733;DHT22;68056;52.530;5.454;2023-06-10T10:35:17;33.60;41.40
78733;DHT22;68056;52.530;5.454;2023-06-10T10:37:43;33.60;41.40
78733;DHT22;68056;52.530;5.454;2023-06-10T10:40:10;33.60;41.20
78733;DHT22;68056;52.530;5.454;2023-06-10T10:42:36;33.70;41.00
78733;DHT22;68056;52.530;5.454;2023-06-10T10:45:03;33.90;41.10
78733;DHT22;68056;52.530;5.454;2023-06-10T10:47:30;33.80;40.80
78733;DHT22;68056;52.530;5.454;2023-06-10T10:49:56;33.80;41.20
78733;DHT22;68056;52.530;5.454;2023-06-10T10:52:26;33.90;41.30
78733;DHT22;68056;52.530;5.454;2023-06-10T10:54:53;33.90;41.30
78733;DHT22;68056;52.530;5.454;2023-06-10T10:57:23;33.90;41.50
78733;DHT22;68056;52.530;5.454;2023-06-10T11:02:18;33.90;41.40
78733;DHT22;68056;52.530;5.454;2023-06-10T11:04:48;34.00;41.20
78733;DHT22;68056;52.530;5.454;2023-06-10T11:07:14;34.00;41.30
78733;DHT22;68056;52.530;5.454;2023-06-10T11:09:59;34.10;41.20
78733;DHT22;68056;52.530;5.454;2023-06-10T11:15:12;34.40;41.00
78733;DHT22;68056;52.530;5.454;2023-06-10T11:18:05;34.40;40.90
78733;DHT22;68056;52.530;5.454;2023-06-10T11:23:07;34.60;40.50
78733;DHT22;68056;52.530;5.454;2023-06-10T11:25:39;34.80;40.80
78733;DHT22;68056;52.530;5.454;2023-06-10T11:28:17;35.10;40.50
78733;DHT22;68056;52.530;5.454;2023-06-10T11:30:43;35.20;40.50
78733;DHT22;68056;52.530;5.454;2023-06-10T11:33:09;35.30;40.60
78733;DHT22;68056;52.530;5.454;2023-06-10T11:35:39;35.40;40.40
78733;DHT22;68056;52.530;5.454;2023-06-10T11:38:05;35.50;40.00
78733;DHT22;68056;52.530;5.454;2023-06-10T11:40:37;35.40;40.00
78733;DHT22;68056;52.530;5.454;2023-06-10T11:43:04;35.30;39.90
78733;DHT22;68056;52.530;5.454;2023-06-10T11:45:47;35.20;40.00
78733;DHT22;68056;52.530;5.454;2023-06-10T11:48:19;35.10;40.30
78733;DHT22;68056;52.530;5.454;2023-06-10T11:50:44;35.10;40.10
78733;DHT22;68056;52.530;5.454;2023-06-10T11:53:19;35.10;40.00
78733;DHT22;68056;52.530;5.454;2023-06-10T11:55:53;35.10;39.90
78733;DHT22;68056;52.530;5.454;2023-06-10T11:58:30;35.40;39.80
78733;DHT22;68056;52.530;5.454;2023-06-10T12:00:56;35.50;39.80
78733;DHT22;68056;52.530;5.454;2023-06-10T12:03:23;35.60;39.80
78733;DHT22;68056;52.530;5.454;2023-06-10T12:06:04;35.70;39.50
78733;DHT22;68056;52.530;5.454;2023-06-10T12:08:31;35.60;39.40
78733;DHT22;68056;52.530;5.454;2023-06-10T12:10:57;35.50;39.50
78733;DHT22;68056;52.530;5.454;2023-06-10T12:13:25;35.60;39.80
78733;DHT22;68056;52.530;5.454;2023-06-10T12:15:51;35.70;39.90
78733;DHT22;68056;52.530;5.454;2023-06-10T12:18:35;35.80;39.50
78733;DHT22;68056;52.530;5.454;2023-06-10T12:21:01;35.80;39.10
78733;DHT22;68056;52.530;5.454;2023-06-10T12:23:29;35.70;39.10
78733;DHT22;68056;52.530;5.454;2023-06-10T12:25:55;35.60;39.30
78733;DHT22;68056;52.530;5.454;2023-06-10T12:28:25;35.60;38.90
78733;DHT22;68056;52.530;5.454;2023-06-10T12:31:08;35.50;39.10
78733;DHT22;68056;52.530;5.454;2023-06-10T12:33:35;35.60;39.30
78733;DHT22;68056;52.530;5.454;2023-06-10T12:36:01;35.80;39.20
78733;DHT22;68056;52.530;5.454;2023-06-10T12:38:27;36.00;39.30
78733;DHT22;68056;52.530;5.454;2023-06-10T12:41:04;36.00;38.80
78733;DHT22;68056;52.530;5.454;2023-06-10T12:43:31;35.70;38.80
78733;DHT22;68056;52.530;5.454;2023-06-10T12:46:09;35.80;39.10
78733;DHT22;68056;52.530;5.454;2023-06-10T12:48:34;35.80;38.60
78733;DHT22;68056;52.530;5.454;2023-06-10T12:51:01;35.70;38.50
78733;DHT22;68056;52.530;5.454;2023-06-10T12:53:26;35.70;38.70
78733;DHT22;68056;52.530;5.454;2023-06-10T12:56:04;35.70;38.40
78733;DHT22;68056;52.530;5.454;2023-06-10T12:58:30;35.80;38.20
78733;DHT22;68056;52.530;5.454;2023-06-10T13:00:55;35.90;38.10
78733;DHT22;68056;52.530;5.454;2023-06-10T13:03:22;36.00;38.20
78733;DHT22;68056;52.530;5.454;2023-06-10T13:05:47;36.20;37.60
78733;DHT22;68056;52.530;5.454;2023-06-10T13:08:13;36.30;36.80
78733;DHT22;68056;52.530;5.454;2023-06-10T13:10:45;36.10;36.90
78733;DHT22;68056;52.530;5.454;2023-06-10T13:13:14;36.10;36.90
78733;DHT22;68056;52.530;5.454;2023-06-10T13:15:40;36.20;36.50
78733;DHT22;68056;52.530;5.454;2023-06-10T13:18:05;36.30;36.30
78733;DHT22;68056;52.530;5.454;2023-06-10T13:20:31;36.30;36.00
78733;DHT22;68056;52.530;5.454;2023-06-10T13:22:57;36.10;35.80
78733;DHT22;68056;52.530;5.454;2023-06-10T13:25:22;35.90;36.00
78733;DHT22;68056;52.530;5.454;2023-06-10T13:27:48;35.90;35.90
78733;DHT22;68056;52.530;5.454;2023-06-10T13:30:14;36.10;35.70
78733;DHT22;68056;52.530;5.454;2023-06-10T13:32:40;36.10;35.10
78733;DHT22;68056;52.530;5.454;2023-06-10T13:35:06;36.20;34.90
78733;DHT22;68056;52.530;5.454;2023-06-10T13:37:33;36.10;34.90
78733;DHT22;68056;52.530;5.454;2023-06-10T13:39:59;36.20;35.00
78733;DHT22;68056;52.530;5.454;2023-06-10T13:42:24;36.30;34.70
78733;DHT22;68056;52.530;5.454;2023-06-10T13:44:51;36.40;34.80
78733;DHT22;68056;52.530;5.454;2023-06-10T13:47:17;36.30;34.70
78733;DHT22;68056;52.530;5.454;2023-06-10T13:49:42;36.20;34.60
78733;DHT22;68056;52.530;5.454;2023-06-10T13:52:08;36.10;34.50
78733;DHT22;68056;52.530;5.454;2023-06-10T13:54:34;36.10;34.30
78733;DHT22;68056;52.530;5.454;2023-06-10T13:57:01;36.10;34.20
78733;DHT22;68056;52.530;5.454;2023-06-10T13:59:27;36.10;34.20
78733;DHT22;68056;52.530;5.454;2023-06-10T14:01:53;36.10;34.10
78733;DHT22;68056;52.530;5.454;2023-06-10T14:04:18;36.00;33.90
78733;DHT22;68056;52.530;5.454;2023-06-10T14:06:44;36.00;33.70
78733;DHT22;68056;52.530;5.454;2023-06-10T14:09:12;36.00;33.40
78733;DHT22;68056;52.530;5.454;2023-06-10T14:11:38;35.90;33.60
78733;DHT22;68056;52.530;5.454;2023-06-10T14:14:03;35.90;33.60
78733;DHT22;68056;52.530;5.454;2023-06-10T14:16:29;35.90;33.50
78733;DHT22;68056;52.530;5.454;2023-06-10T14:18:54;35.90;33.60
78733;DHT22;68056;52.530;5.454;2023-06-10T14:21:20;35.90;33.70
78733;DHT22;68056;52.530;5.454;2023-06-10T14:23:46;35.80;33.60
78733;DHT22;68056;52.530;5.454;2023-06-10T14:26:12;35.80;33.50
78733;DHT22;68056;52.530;5.454;2023-06-10T14:28:41;35.60;33.50
78733;DHT22;68056;52.530;5.454;2023-06-10T14:31:06;35.50;33.80
78733;DHT22;68056;52.530;5.454;2023-06-10T14:33:33;35.50;34.00
78733;DHT22;68056;52.530;5.454;2023-06-10T14:35:58;35.50;34.20
78733;DHT22;68056;52.530;5.454;2023-06-10T14:38:24;35.50;34.10
78733;DHT22;68056;52.530;5.454;2023-06-10T14:40:49;35.30;34.10
78733;DHT22;68056;52.530;5.454;2023-06-10T14:43:15;35.20;34.00
78733;DHT22;68056;52.530;5.454;2023-06-10T14:45:41;34.90;34.30
78733;DHT22;68056;52.530;5.454;2023-06-10T14:48:07;34.80;34.40
78733;DHT22;68056;52.530;5.454;2023-06-10T14:50:35;34.80;34.80
78733;DHT22;68056;52.530;5.454;2023-06-10T14:53:00;34.70;35.00
78733;DHT22;68056;52.530;5.454;2023-06-10T14:55:26;34.70;35.30
78733;DHT22;68056;52.530;5.454;2023-06-10T14:57:52;34.70;35.10
78733;DHT22;68056;52.530;5.454;2023-06-10T15:00:18;34.70;34.90
78733;DHT22;68056;52.530;5.454;2023-06-10T15:02:47;34.70;34.70
78733;DHT22;68056;52.530;5.454;2023-06-10T15:05:14;34.50;34.90
78733;DHT22;68056;52.530;5.454;2023-06-10T15:07:41;34.40;34.90
78733;DHT22;68056;52.530;5.454;2023-06-10T15:10:07;34.30;34.90
78733;DHT22;68056;52.530;5.454;2023-06-10T15:12:33;34.20;35.10
78733;DHT22;68056;52.530;5.454;2023-06-10T15:14:59;34.20;35.30
78733;DHT22;68056;52.530;5.454;2023-06-10T15:17:24;34.10;35.30
78733;DHT22;68056;52.530;5.454;2023-06-10T15:19:50;34.00;35.20
78733;DHT22;68056;52.530;5.454;2023-06-10T15:22:16;33.90;35.10
78733;DHT22;68056;52.530;5.454;2023-06-10T15:24:42;33.80;35.20
78733;DHT22;68056;52.530;5.454;2023-06-10T15:27:08;33.60;35.20
78733;DHT22;68056;52.530;5.454;2023-06-10T15:29:33;33.50;35.40
78733;DHT22;68056;52.530;5.454;2023-06-10T15:31:59;33.50;35.40
78733;DHT22;68056;52.530;5.454;2023-06-10T15:34:24;33.40;35.60
78733;DHT22;68056;52.530;5.454;2023-06-10T15:36:50;33.50;35.40
78733;DHT22;68056;52.530;5.454;2023-06-10T15:39:16;33.50;35.50